Impacts TAF Board
For situational awareness. Not to be used for flight planning purposes.
IDs:

KCRP - Corpus Christi Intl, TX, US

Issued at 1720 UTC 02 Oct 2022
Updated at 2018 UTC 02 Oct 2022
Potential Impact None Slight Moderate High
Time1951Z 02/21Z 02/22Z 02/23Z 03/00Z 03/01Z 03/02Z 03/03Z 03/04Z 03/05Z 03/06Z 03/07Z 03/08Z 03/09Z>>
Type OBS PRVL PRVL PRVL PRVL PRVL PRVL PRVL PRVL PRVL PRVL PRVL PRVL PRVL
VIS 10 >6 >6 >6 >6 >6 >6 >6 >6 >6 >6 >6 >6 >6
CIG 250 -- -- -- -- -- -- -- -- -- -- -- -- 250
Cover BKN SCT SCT SCT SCT SCT SCT SCT SCT SCT SCT SCT SCT BKN
FltCat VFR VFR VFR VFR VFR VFR VFR VFR VFR VFR VFR VFR VFR VFR
WX -- -- -- -- -- -- -- -- -- -- -- -- -- --
WDir 90 120 120 120 120 120 120 120 120 120 120 120 120 VRB
WSpd 10 5 5 5 5 5 5 5 5 5 5 5 5 3
WGst 17 -- -- -- -- -- -- -- -- -- -- -- -- --
WSHgt -- -- -- -- -- -- -- -- -- -- -- -- -- --
WSDir -- -- -- -- -- -- -- -- -- -- -- -- -- --
WSSpd -- -- -- -- -- -- -- -- -- -- -- -- -- --
R13/31
XWnd 7 1 1 1 1 1 1 1 1 1 1 1 1 VRB
XGst 12 -- -- -- -- -- -- -- -- -- -- -- -- --
HWnd 7 5 5 5 5 5 5 5 5 5 5 5 5 VRB
HGst 12 -- -- -- -- -- -- -- -- -- -- -- -- --
R18/36
XWnd 10 4 4 4 4 4 4 4 4 4 4 4 4 VRB
XGst 17 -- -- -- -- -- -- -- -- -- -- -- -- --
HWnd 0 3 3 3 3 3 3 3 3 3 3 3 3 VRB
HGst 0 -- -- -- -- -- -- -- -- -- -- -- -- --
Raw TAF
KCRP 021720Z 0218/0318 07012G18KT P6SM FEW060 SCT250
  FM022100 12005KT P6SM FEW100 SCT250
  FM030900 VRB03KT P6SM BKN250
  FM031500 09007KT P6SM SCT250


Raw METAR
KCRP 021951Z 09010G17KT 10SM SCT050 SCT200 BKN250 30/17 A3007 RMK AO2 SLP182 T03000167
KCRP 021851Z 09010G17KT 10SM SCT050 SCT200 BKN250 32/17 A3009 RMK AO2 SLP187 T03170167
KCRP 021751Z 12009G18KT 10SM SCT050 BKN250 31/17 A3011 RMK AO2 SLP195 T03110167 10317 20206 58001

METAR Board
Radar Display
Forecast Discussion
For situational awareness. Not to be used for flight planning purposes.